WetterOnline ( http://www.wetteronline.de )

Wetter aktuell Kiel

Aktuelles Wetter: Dörnick (28m)

6-stündlich | Neueste Meldungen
Ortszeit Temperatur Wetter
Mi, 25.04. 20:00 9.2° C bewölkt
Mi, 25.04. 14:00 8.6° C bedeckt
Di, 24.04. 14:00 12.9° C bewölkt
Sa, 21.04. 8:00 9.2° C wolkenlos
Fr, 20.04. 8:00 13.7° C leicht bewölkt
Fr, 20.04. 2:00 10.5° C -
Do, 19.04. 8:00 10.9° C leicht bewölkt
Do, 19.04. 2:00 8.8° C leicht bewölkt
Ortszeit Temperatur Wetter
Mi, 25.04. 23:30 7.6° C Sprühregen
Mi, 25.04. 23:20 7.6° C Sprühregen
Mi, 25.04. 23:10 7.7° C leichter Regen
Mi, 25.04. 23:00 7.9° C bedeckt
Mi, 25.04. 22:50 7.9° C bedeckt
Mi, 25.04. 22:40 8.2° C leichter Regen
Mi, 25.04. 22:30 8.2° C bedeckt
Mi, 25.04. 22:00 8.4° C Sprühregen
Mi, 25.04. 21:30 8.3° C bewölkt
Mi, 25.04. 21:00 8.3° C wolkig
Mi, 25.04. 20:30 8.6° C wolkig
Ortszeit Relative Feuchte Sichtweite
Mi, 25.04. 20:00 76% 30 km
Mi, 25.04. 14:00 87% 45 km
Di, 24.04. 14:00 63% 15 km
Sa, 21.04. 8:00 90% 1.8 km
Fr, 20.04. 8:00 80% 12 km
Fr, 20.04. 2:00 93% 8 km
Do, 19.04. 8:00 95% 3.1 km
Do, 19.04. 2:00 99% 6 km
Ortszeit Relative Feuchte Sichtweite
Mi, 25.04. 23:30 91% 35 km
Mi, 25.04. 23:20 91% -
Mi, 25.04. 23:10 92% -
Mi, 25.04. 23:00 92% 26 km
Mi, 25.04. 22:50 92% -
Mi, 25.04. 22:40 90% -
Mi, 25.04. 22:30 89% 35 km
Mi, 25.04. 22:00 85% 29 km
Mi, 25.04. 21:30 82% 45 km
Mi, 25.04. 21:00 80% 55 km
Mi, 25.04. 20:30 78% 55 km
Ortszeit Niederschlagsmenge Niederschlagsart
Mi, 25.04. 20:00 0.1 l/m2 in 3 Std. Regen
Mi, 25.04. 14:00 0.6 l/m2 in 3 Std. Schnee
Di, 24.04. 14:00 0.1 l/m2 in 3 Std. -
Sa, 21.04. 8:00 0.0 l/m2 in 3 Std. -
Fr, 20.04. 8:00 0.0 l/m2 in 3 Std. -
Fr, 20.04. 2:00 0.0 l/m2 in 6 Std. -
Do, 19.04. 8:00 0.0 l/m2 in 12 Std. -
Do, 19.04. 2:00 0.0 l/m2 in 6 Std. -
Ortszeit Niederschlagsmenge Niederschlagsart
Mi, 25.04. 23:30 0.1 l/m2 in 1 Std. -
Mi, 25.04. 23:20 keine Meldung -
Mi, 25.04. 23:10 keine Meldung -
Mi, 25.04. 23:00 0.2 l/m2 in 1 Std. Regen
Mi, 25.04. 22:50 keine Meldung -
Mi, 25.04. 22:40 keine Meldung -
Mi, 25.04. 22:30 0.1 l/m2 in 1 Std. Schnee
Mi, 25.04. 22:00 0.1 l/m2 in 1 Std. Regen
Mi, 25.04. 21:30 0.0 l/m2 in 1 Std. -
Mi, 25.04. 21:00 0.0 l/m2 in 1 Std. -
Mi, 25.04. 20:30 0.0 l/m2 in 1 Std. -
Ortszeit Stärke Spitze Richtung
km/h Bft. km/h Grad Sektor
Mi, 25.04. 20:00 14 3 43 250° W
Mi, 25.04. 14:00 20 4 43 310° NW
Di, 24.04. 14:00 31 5 56 260° W
Sa, 21.04. 8:00 11 2 14 300° NW
Fr, 20.04. 8:00 11 2 18 130° SO
Fr, 20.04. 2:00 6 1 - 140° SO
Do, 19.04. 8:00 4 1 7 130° SO
Do, 19.04. 2:00 4 1 - 150° SO
Ortszeit Stärke Spitze Richtung
km/h Bft. km/h Grad Sektor
Mi, 25.04. 23:30 17 3 24 220° SW
Mi, 25.04. 23:20 17 3 - 220° SW
Mi, 25.04. 23:10 14 3 - 220° SW
Mi, 25.04. 23:00 14 3 22 220° SW
Mi, 25.04. 22:50 14 3 - 220° SW
Mi, 25.04. 22:40 15 3 - 220° SW
Mi, 25.04. 22:30 11 2 18 220° SW
Mi, 25.04. 22:00 13 3 20 210° SW
Mi, 25.04. 21:30 11 2 18 210° SW
Mi, 25.04. 21:00 11 2 18 220° SW
Mi, 25.04. 20:30 13 3 19 240° SW
Ortszeit Untergrenze Bedeckung Gattung
total tief tief mittel hoch
Mi, 25.04. 20:00 1500 m 8/8 6/8 - - -
Mi, 25.04. 14:00 150 m 8/8 8/8 - - -
Di, 24.04. 14:00 750 m 7/8 6/8 - - -
Sa, 21.04. 8:00 - 0/8 0/8 - - -
Fr, 20.04. 8:00 10500 m 4/8 0/8 - - -
Fr, 20.04. 2:00 - - - - - -
Do, 19.04. 8:00 4800 m 4/8 4/8 - - -
Do, 19.04. 2:00 5100 m 6/8 1/8 - - -
Ortszeit Bedeckungsgrad in Achtel und Wolkenuntergrenze
Mi, 25.04. 23:30 3(690m) 7(1140m) 7(1500m)
Mi, 25.04. 23:20 3(690m) 7(1140m) 7(1500m)
Mi, 25.04. 23:10 1(210m) 7(1500m) 7(2100m)
Mi, 25.04. 23:00 3(420m) 7(1500m) 8(2400m)
Mi, 25.04. 22:50 3(420m) 7(1500m) 8(2400m)
Mi, 25.04. 22:40 4(510m) 7(1800m) 8(2400m)
Mi, 25.04. 22:30 3(780m) 8(2700m) 8(3600m)
Mi, 25.04. 22:00 3(840m) 7(1500m) 8(2400m)
Mi, 25.04. 21:30 4(1260m) 8(3000m) 7(2700m)
Mi, 25.04. 21:00 2(1500m) 6(3000m) 8(5100m)
Mi, 25.04. 20:30 1(750m) 8(5100m) 8(6000m)
Ortszeit Luftdruck NN (hPa) Tendenz (hPa in 3 Std.)
Mi, 25.04. 20:00 1008 + 0,2
Mi, 25.04. 14:00 1006 + 5,5
Di, 24.04. 14:00 1011 + 1,1
Sa, 21.04. 8:00 1021 + 1,2
Fr, 20.04. 8:00 1023 - 1,8
Fr, 20.04. 2:00 1027 keine Meldung
Do, 19.04. 8:00 1032 + 0,1
Do, 19.04. 2:00 1032 - 0,2
Ortszeit Luftdruck NN (hPa) Tendenz (hPa in 3 Std.)
Mi, 25.04. 23:30 1009 0,0
Mi, 25.04. 23:20 1009 keine Meldung
Mi, 25.04. 23:10 1009 keine Meldung
Mi, 25.04. 23:00 1009 + 0,3
Mi, 25.04. 22:50 1009 keine Meldung
Mi, 25.04. 22:40 1009 keine Meldung
Mi, 25.04. 22:30 1009 + 0,1
Mi, 25.04. 22:00 1009 0,0
Mi, 25.04. 21:30 1009 - 0,1
Mi, 25.04. 21:00 1009 0,0
Mi, 25.04. 20:30 1009 0,0
Ortszeit Schneehöhe (cm)
Mi, 25.04. 20:00 0
Mi, 25.04. 14:00 0
Di, 24.04. 14:00 0
Sa, 21.04. 8:00 0
Fr, 20.04. 8:00 0
Fr, 20.04. 2:00 -
Do, 19.04. 8:00 0
Do, 19.04. 2:00 0
Ortszeit Schneehöhe (cm)
Mi, 25.04. 23:30 0
Mi, 25.04. 23:20 0
Mi, 25.04. 23:10 0
Mi, 25.04. 23:00 0
Mi, 25.04. 22:50 0
Mi, 25.04. 22:40 0
Mi, 25.04. 22:30 0
Mi, 25.04. 22:00 0
Mi, 25.04. 21:30 0
Mi, 25.04. 21:00 0
Mi, 25.04. 20:30 0
Link zu dieser Seite / Seite empfehlen

Das Wetter in ...